createdAt,value
2023-04-27T00:01:38.014Z,98968.09
2023-04-27T00:04:07.068Z,98964.89
2023-04-27T00:06:34.698Z,98968.64
2023-04-27T00:09:02.237Z,98969.73
2023-04-27T00:11:30.353Z,98973.09
2023-04-27T00:13:57.630Z,98978.07
2023-04-27T00:16:28.266Z,98985.59
2023-04-27T00:18:55.885Z,98986.73
2023-04-27T00:21:23.320Z,98992.02
2023-04-27T00:23:50.469Z,98995.68
2023-04-27T00:26:17.487Z,99001.39
2023-04-27T00:28:47.105Z,99009.63
2023-04-27T00:31:14.187Z,99011.47
2023-04-27T00:33:41.290Z,99019.60
2023-04-27T00:36:08.949Z,99023.56
2023-04-27T00:38:38.608Z,99026.47
2023-04-27T00:41:07.284Z,99027.27
2023-04-27T00:43:44.129Z,99031.85
2023-04-27T00:46:14.941Z,99035.20
2023-04-27T00:48:42.092Z,99037.40
2023-04-27T00:51:09.674Z,99039.97
2023-04-27T00:53:37.160Z,99042.18
2023-04-27T00:56:07.253Z,99041.45
2023-04-27T00:58:34.229Z,99042.27
2023-04-27T01:01:02.382Z,99039.84
2023-04-27T01:03:30.796Z,99034.75
2023-04-27T01:06:01.643Z,99032.38
2023-04-27T01:08:29.686Z,99039.55
2023-04-27T01:10:56.927Z,99037.73
2023-04-27T01:13:24.334Z,99040.15
2023-04-27T01:15:51.376Z,99038.79
2023-04-27T01:18:18.561Z,99042.16
2023-04-27T01:20:45.847Z,99039.06
2023-04-27T01:23:17.525Z,99035.73
2023-04-27T01:25:45.250Z,99030.30
2023-04-27T01:28:12.788Z,99022.20
2023-04-27T01:30:39.857Z,99029.98
2023-04-27T01:33:06.942Z,99035.37
2023-04-27T01:35:33.796Z,99033.58
2023-04-27T01:38:00.770Z,99040.70
2023-04-27T01:40:27.991Z,99037.05
2023-04-27T01:42:55.247Z,99040.86
2023-04-27T01:45:22.318Z,99042.74
2023-04-27T01:47:52.471Z,99046.56
2023-04-27T01:50:20.589Z,99042.77
2023-04-27T01:52:47.955Z,99043.35
2023-04-27T01:55:15.095Z,99049.59
2023-04-27T01:57:42.393Z,99049.30
2023-04-27T02:00:10.605Z,99047.09
2023-04-27T02:02:53.836Z,99047.09
2023-04-27T02:05:24.441Z,99047.25
2023-04-27T02:07:53.017Z,99053.59
2023-04-27T02:10:22.242Z,99057.73
2023-04-27T02:12:49.875Z,99062.05
2023-04-27T02:15:17.470Z,99058.89
2023-04-27T02:17:45.725Z,99052.66
2023-04-27T02:20:13.068Z,99047.03
2023-04-27T02:22:45.989Z,99051.14
2023-04-27T02:25:13.209Z,99056.79
2023-04-27T02:27:40.926Z,99062.15
2023-04-27T02:30:10.566Z,99067.54
2023-04-27T02:32:40.632Z,99069.89
2023-04-27T02:35:08.572Z,99070.16
2023-04-27T02:37:35.932Z,99070.17
2023-04-27T02:40:04.409Z,99066.92
2023-04-27T02:42:34.059Z,99065.00
2023-04-27T02:45:01.449Z,99061.63
2023-04-27T02:47:28.468Z,99067.83
2023-04-27T02:49:55.510Z,99072.64
2023-04-27T02:52:22.996Z,99075.14
2023-04-27T02:54:49.951Z,99081.80
2023-04-27T02:57:17.090Z,99085.44
2023-04-27T02:59:43.985Z,99080.54
2023-04-27T03:02:10.989Z,99085.83
2023-04-27T03:04:38.564Z,99089.52
2023-04-27T03:07:05.712Z,99096.79
2023-04-27T03:09:32.859Z,99101.70
2023-04-27T03:11:59.912Z,99105.05
2023-04-27T03:14:27.265Z,99108.70
2023-04-27T03:16:56.260Z,99111.33
2023-04-27T03:19:23.651Z,99111.99
2023-04-27T03:21:50.761Z,99113.73
2023-04-27T03:24:17.842Z,99118.55
2023-04-27T03:26:44.957Z,99116.23
2023-04-27T03:29:12.181Z,99113.55
2023-04-27T03:31:39.602Z,99111.48
2023-04-27T03:34:07.540Z,99120.42
2023-04-27T03:36:35.403Z,99126.58
2023-04-27T03:39:02.665Z,99132.87
2023-04-27T03:41:29.725Z,99135.89
2023-04-27T03:43:57.596Z,99136.62
2023-04-27T03:46:24.716Z,99136.75
2023-04-27T03:48:51.973Z,99138.22
2023-04-27T03:51:19.421Z,99139.71
2023-04-27T03:53:46.940Z,99136.60
2023-04-27T03:56:14.109Z,99140.27
2023-04-27T03:58:41.088Z,99143.42
2023-04-27T04:01:19.252Z,99151.75
2023-04-27T04:03:48.100Z,99152.65
2023-04-27T04:06:15.547Z,99154.31
2023-04-27T04:08:42.530Z,99148.71
2023-04-27T04:11:10.078Z,99144.96
2023-04-27T04:13:37.435Z,99142.45
2023-04-27T04:16:09.179Z,99146.09
2023-04-27T04:18:36.653Z,99151.48
2023-04-27T04:21:04.024Z,99148.23
2023-04-27T04:23:33.132Z,99146.99
2023-04-27T04:26:02.505Z,99144.42
2023-04-27T04:28:33.950Z,99145.00
2023-04-27T04:31:01.734Z,99143.99
2023-04-27T04:33:28.848Z,99144.09
2023-04-27T04:35:55.883Z,99140.96
2023-04-27T04:38:23.902Z,99141.55
2023-04-27T04:40:53.058Z,99140.34
2023-04-27T04:43:20.165Z,99139.36
2023-04-27T04:45:47.731Z,99132.96
2023-04-27T04:48:16.742Z,99137.05
2023-04-27T04:50:45.386Z,99137.59
2023-04-27T04:53:13.031Z,99141.78
2023-04-27T04:55:41.183Z,99148.11
2023-04-27T04:58:08.404Z,99150.31
2023-04-27T05:00:35.653Z,99154.13
2023-04-27T05:03:02.839Z,99151.94
2023-04-27T05:05:30.227Z,99146.07
2023-04-27T05:07:57.381Z,99150.73
2023-04-27T05:10:24.360Z,99152.84
2023-04-27T05:12:51.352Z,99159.86
2023-04-27T05:15:18.272Z,99157.66
2023-04-27T05:17:45.281Z,99163.75
2023-04-27T05:20:12.296Z,99160.52
2023-04-27T05:22:39.126Z,99163.95
2023-04-27T05:25:06.694Z,99164.41
2023-04-27T05:27:33.730Z,99170.80
2023-04-27T05:30:00.873Z,99176.22
2023-04-27T05:32:27.773Z,99181.36
2023-04-27T05:34:55.185Z,99182.05
2023-04-27T05:37:22.572Z,99178.50
2023-04-27T05:39:49.528Z,99185.98
2023-04-27T05:42:16.562Z,99183.96
2023-04-27T05:44:43.936Z,99186.70
2023-04-27T05:47:11.018Z,99184.27
2023-04-27T05:49:38.033Z,99180.94
2023-04-27T05:52:04.929Z,99178.73
2023-04-27T05:54:31.877Z,99179.15
2023-04-27T05:56:58.958Z,99181.33
2023-04-27T05:59:27.330Z,99181.78
2023-04-27T06:01:54.295Z,99182.01
2023-04-27T06:04:21.629Z,99179.29
2023-04-27T06:06:48.704Z,99182.75
2023-04-27T06:09:15.812Z,99186.34
2023-04-27T06:11:43.763Z,99188.31
2023-04-27T06:14:10.786Z,99188.12
2023-04-27T06:16:37.676Z,99197.41
2023-04-27T06:19:04.601Z,99194.80
2023-04-27T06:21:33.757Z,99192.41
2023-04-27T06:24:01.260Z,99192.40
2023-04-27T06:26:28.357Z,99197.55
2023-04-27T06:28:56.259Z,99197.85
2023-04-27T06:31:23.276Z,99200.82
2023-04-27T06:33:50.354Z,99206.51
2023-04-27T06:36:17.297Z,99211.80
2023-04-27T06:41:14.699Z,99212.86
2023-04-27T06:43:41.541Z,99212.77
2023-04-27T06:46:08.460Z,99216.30
2023-04-27T06:48:35.508Z,99218.61
2023-04-27T06:51:02.350Z,99221.08
2023-04-27T06:53:29.195Z,99222.16
2023-04-27T06:55:56.221Z,99223.49
2023-04-27T06:58:23.341Z,99220.23
2023-04-27T07:00:50.919Z,99219.62
2023-04-27T07:03:18.089Z,99225.83
2023-04-27T07:05:45.119Z,99225.60
2023-04-27T07:08:12.375Z,99230.48
2023-04-27T07:10:39.383Z,99233.50
2023-04-27T07:13:08.843Z,99234.31
2023-04-27T07:15:36.930Z,99235.64
2023-04-27T07:18:04.153Z,99234.89
2023-04-27T07:20:31.877Z,99238.25
2023-04-27T07:22:58.737Z,99238.30
2023-04-27T07:25:26.011Z,99243.39
2023-04-27T07:27:52.858Z,99243.86
2023-04-27T07:30:19.957Z,99243.61
2023-04-27T07:32:48.360Z,99244.69
2023-04-27T07:35:15.916Z,99245.95
2023-04-27T07:37:44.386Z,99241.20
2023-04-27T07:40:16.932Z,99242.10
2023-04-27T07:42:44.730Z,99251.75
2023-04-27T07:45:14.291Z,99249.08
2023-04-27T07:47:42.580Z,99250.87
2023-04-27T07:50:10.807Z,99254.45
2023-04-27T07:52:37.966Z,99254.80
2023-04-27T07:55:05.315Z,99254.24
2023-04-27T07:57:32.169Z,99255.02
2023-04-27T07:59:59.032Z,99256.23
2023-04-27T08:02:30.528Z,99261.40
2023-04-27T08:04:58.187Z,99266.48
2023-04-27T08:07:25.363Z,99269.33
2023-04-27T08:09:53.568Z,99267.75
2023-04-27T08:12:20.573Z,99269.06
2023-04-27T08:14:47.523Z,99263.37
2023-04-27T08:17:14.423Z,99269.20
2023-04-27T08:19:41.469Z,99269.56
2023-04-27T08:22:08.670Z,99274.71
2023-04-27T08:24:36.459Z,99280.10
2023-04-27T08:27:06.389Z,99278.13
2023-04-27T08:29:33.579Z,99284.16
2023-04-27T08:32:01.499Z,99282.61
2023-04-27T08:34:28.782Z,99283.75
2023-04-27T08:36:56.303Z,99284.61
2023-04-27T08:39:24.075Z,99292.95
2023-04-27T08:41:51.012Z,99291.20
2023-04-27T08:44:18.575Z,99288.89
2023-04-27T08:46:46.098Z,99290.27
2023-04-27T08:49:15.096Z,99291.00
2023-04-27T08:51:43.770Z,99291.98
2023-04-27T08:54:10.776Z,99292.20
2023-04-27T08:56:37.734Z,99292.08
2023-04-27T08:59:12.939Z,99290.21
2023-04-27T09:01:44.275Z,99294.34
2023-04-27T09:04:12.357Z,99294.13
2023-04-27T09:06:39.545Z,99295.98
2023-04-27T09:09:07.672Z,99298.02
2023-04-27T09:11:38.837Z,99297.88
2023-04-27T09:14:23.010Z,99299.77
2023-04-27T09:17:00.185Z,99301.31
2023-04-27T09:19:28.776Z,99302.48
2023-04-27T09:22:09.374Z,99299.70
2023-04-27T09:24:37.057Z,99298.77
2023-04-27T09:27:05.151Z,99300.30
2023-04-27T09:29:36.336Z,99299.02
2023-04-27T09:32:03.984Z,99298.95
2023-04-27T09:34:41.397Z,99300.02
2023-04-27T09:37:08.410Z,99302.14
2023-04-27T09:39:35.464Z,99304.72
2023-04-27T09:42:04.507Z,99302.73
2023-04-27T09:44:32.121Z,99303.59
2023-04-27T09:47:00.372Z,99298.86
2023-04-27T09:49:28.904Z,99296.98
2023-04-27T09:51:57.180Z,99294.66
2023-04-27T09:54:26.359Z,99298.04
2023-04-27T09:57:22.432Z,99300.86
2023-04-27T10:00:03.261Z,99299.35
2023-04-27T10:02:35.071Z,99302.20
2023-04-27T10:05:29.792Z,99300.02
2023-04-27T10:07:56.667Z,99300.33
2023-04-27T10:10:23.810Z,99301.48
2023-04-27T10:13:00.735Z,99301.05
2023-04-27T10:15:28.406Z,99301.77
2023-04-27T10:17:58.902Z,99297.41
2023-04-27T10:20:32.403Z,99302.90
2023-04-27T10:23:00.451Z,99301.72
2023-04-27T10:25:29.644Z,99303.20
2023-04-27T10:28:01.429Z,99305.75
2023-04-27T10:30:32.943Z,99311.90
2023-04-27T10:33:05.045Z,99317.87
2023-04-27T10:35:33.850Z,99326.45
2023-04-27T10:38:16.519Z,99326.27
2023-04-27T10:41:06.813Z,99332.06
2023-04-27T10:43:35.126Z,99332.34
2023-04-27T10:46:10.101Z,99334.45
2023-04-27T10:48:39.215Z,99334.20
2023-04-27T10:51:06.575Z,99342.94
2023-04-27T10:53:35.903Z,99341.35
2023-04-27T10:56:05.424Z,99340.02
2023-04-27T10:58:45.399Z,99338.16
2023-04-27T11:01:27.047Z,99339.79
2023-04-27T11:04:01.527Z,99341.30
2023-04-27T11:06:30.505Z,99344.84
2023-04-27T11:08:57.606Z,99342.98
2023-04-27T11:11:25.448Z,99339.24
2023-04-27T11:13:53.554Z,99336.63
2023-04-27T11:16:20.566Z,99338.94
2023-04-27T11:18:47.726Z,99336.06
2023-04-27T11:21:21.868Z,99339.06
2023-04-27T11:23:49.062Z,99338.42
2023-04-27T11:26:17.410Z,99337.80
2023-04-27T11:28:45.891Z,99342.24
2023-04-27T11:31:13.406Z,99345.49
2023-04-27T11:33:51.933Z,99349.63
2023-04-27T11:36:23.439Z,99348.52
2023-04-27T11:38:50.710Z,99349.55
2023-04-27T11:41:17.825Z,99350.62
2023-04-27T11:43:49.625Z,99355.98
2023-04-27T11:46:21.542Z,99358.27
2023-04-27T11:48:48.613Z,99356.64
2023-04-27T11:51:15.544Z,99353.47
2023-04-27T11:53:43.303Z,99353.29
2023-04-27T11:56:11.199Z,99348.66
2023-04-27T11:58:39.029Z,99350.22
2023-04-27T12:01:06.460Z,99350.46
2023-04-27T12:03:33.766Z,99351.70
2023-04-27T12:06:16.124Z,99349.45
2023-04-27T12:08:47.966Z,99350.52
2023-04-27T12:11:15.117Z,99354.82
2023-04-27T12:13:41.951Z,99356.66
2023-04-27T12:16:08.967Z,99356.48
2023-04-27T12:18:35.959Z,99354.05
2023-04-27T12:21:03.503Z,99353.82
2023-04-27T12:23:31.145Z,99353.98
2023-04-27T12:25:58.227Z,99355.57
2023-04-27T12:28:25.165Z,99356.55
2023-04-27T12:30:52.337Z,99361.42
2023-04-27T12:33:19.390Z,99368.74
2023-04-27T12:35:46.329Z,99375.77
2023-04-27T12:38:13.206Z,99377.36
2023-04-27T12:40:40.132Z,99378.85
2023-04-27T12:43:08.417Z,99376.58
2023-04-27T12:45:35.368Z,99376.84
2023-04-27T12:48:04.278Z,99376.84
2023-04-27T12:50:36.913Z,99374.09
2023-04-27T12:53:03.877Z,99377.05
2023-04-27T12:55:34.171Z,99376.09
2023-04-27T12:58:02.637Z,99379.52
2023-04-27T13:00:30.028Z,99378.45
2023-04-27T13:02:59.966Z,99375.69
2023-04-27T13:05:29.723Z,99382.05
2023-04-27T13:07:58.373Z,99385.25
2023-04-27T13:10:25.455Z,99381.80
2023-04-27T13:12:52.397Z,99381.63
2023-04-27T13:15:19.386Z,99385.52
2023-04-27T13:17:46.506Z,99384.10
2023-04-27T13:20:13.667Z,99387.12
2023-04-27T13:22:40.938Z,99386.89
2023-04-27T13:25:09.792Z,99396.10
2023-04-27T13:27:36.927Z,99400.01
2023-04-27T13:30:05.413Z,99404.42
2023-04-27T13:32:32.654Z,99402.00
2023-04-27T13:34:59.990Z,99403.98
2023-04-27T13:37:27.392Z,99407.05
2023-04-27T13:39:54.493Z,99413.08
2023-04-27T13:42:21.822Z,99408.50
2023-04-27T13:44:48.728Z,99408.99
2023-04-27T13:47:15.756Z,99409.02
2023-04-27T13:49:43.112Z,99414.71
2023-04-27T13:52:10.073Z,99412.48
2023-04-27T13:54:37.420Z,99415.21
2023-04-27T13:57:04.435Z,99412.77
2023-04-27T13:59:31.469Z,99405.35
2023-04-27T14:01:58.442Z,99406.61
2023-04-27T14:04:25.491Z,99403.39
2023-04-27T14:06:52.518Z,99408.04
2023-04-27T14:09:19.667Z,99409.98
2023-04-27T14:11:56.258Z,99416.20
2023-04-27T14:14:24.432Z,99419.42
2023-04-27T14:16:51.568Z,99417.88
2023-04-27T14:19:20.806Z,99418.98
2023-04-27T14:21:49.187Z,99422.12
2023-04-27T14:24:16.526Z,99419.55
2023-04-27T14:26:44.392Z,99428.36
2023-04-27T14:29:11.973Z,99436.13
2023-04-27T14:31:39.481Z,99438.55
2023-04-27T14:34:07.479Z,99440.92
2023-04-27T14:36:34.437Z,99439.30
2023-04-27T14:39:01.716Z,99442.70
2023-04-27T14:41:28.736Z,99446.57
2023-04-27T14:43:55.752Z,99446.94
2023-04-27T14:46:22.847Z,99447.95
2023-04-27T14:48:50.119Z,99444.46
2023-04-27T14:51:17.117Z,99448.96
2023-04-27T15:06:31.534Z,99447.98
2023-04-27T15:08:58.257Z,99447.45
2023-04-27T15:11:24.846Z,99451.91
2023-04-27T15:13:51.865Z,99454.72
2023-04-27T15:16:19.382Z,99452.94
2023-04-27T15:18:46.529Z,99453.25
2023-04-27T15:21:13.125Z,99457.15
2023-04-27T15:23:39.884Z,99459.98
2023-04-27T15:26:07.094Z,99455.89
2023-04-27T15:28:35.645Z,99451.63
2023-04-27T15:31:02.916Z,99456.48
2023-04-27T15:33:34.190Z,99457.34
2023-04-27T15:36:01.476Z,99449.98
2023-04-27T15:38:28.570Z,99446.65
2023-04-27T15:40:55.311Z,99445.88
2023-04-27T15:43:22.169Z,99446.95
2023-04-27T15:45:49.493Z,99451.45
2023-04-27T15:48:16.250Z,99453.98
2023-04-27T15:50:44.128Z,99452.38
2023-04-27T15:53:11.023Z,99456.31
2023-04-27T15:55:37.836Z,99457.16
2023-04-27T15:58:04.896Z,99462.91
2023-04-27T16:00:32.237Z,99470.25
2023-04-27T16:02:59.839Z,99470.05
2023-04-27T16:05:28.118Z,99480.02
2023-04-27T16:07:55.016Z,99481.52
2023-04-27T16:10:21.766Z,99490.20
2023-04-27T16:12:48.621Z,99493.61
2023-04-27T16:15:15.794Z,99500.37
2023-04-27T16:17:42.509Z,99496.23
2023-04-27T16:20:09.577Z,99495.15
2023-04-27T16:22:37.016Z,99490.15
2023-04-27T16:25:06.468Z,99488.55
2023-04-27T16:27:34.179Z,99489.10
2023-04-27T16:30:01.525Z,99487.33
2023-04-27T16:32:28.934Z,99488.91
2023-04-27T16:34:55.868Z,99489.74
2023-04-27T16:37:22.764Z,99491.92
2023-04-27T16:39:49.828Z,99492.92
2023-04-27T16:42:20.601Z,99493.83
2023-04-27T16:44:48.348Z,99491.63
2023-04-27T16:47:15.081Z,99487.92
2023-04-27T16:49:43.561Z,99487.32
2023-04-27T16:52:11.392Z,99484.27
2023-04-27T16:54:38.466Z,99485.33
2023-04-27T16:57:07.175Z,99487.64
2023-04-27T16:59:35.198Z,99487.42
2023-04-27T17:02:16.309Z,99483.52
2023-04-27T17:04:48.684Z,99493.79
2023-04-27T17:07:15.676Z,99491.92
2023-04-27T17:09:42.640Z,99496.54
2023-04-27T17:12:19.927Z,99503.58
2023-04-27T17:14:49.098Z,99509.39
2023-04-27T17:17:16.024Z,99511.98
2023-04-27T17:19:42.918Z,99514.61
2023-04-27T17:22:12.619Z,99516.33
2023-04-27T17:24:39.314Z,99522.28
2023-04-27T17:27:06.213Z,99524.38
2023-04-27T17:29:33.348Z,99530.80
2023-04-27T17:32:00.174Z,99527.73
2023-04-27T17:34:27.024Z,99530.24
2023-04-27T17:36:53.804Z,99535.31
2023-04-27T17:39:26.383Z,99540.49
2023-04-27T17:41:53.691Z,99543.52
2023-04-27T17:44:21.012Z,99546.96
2023-04-27T17:46:49.001Z,99548.30
2023-04-27T17:49:16.460Z,99544.50
2023-04-27T17:51:46.521Z,99549.21
2023-04-27T17:54:13.209Z,99550.73
2023-04-27T17:56:39.908Z,99559.77
2023-04-27T17:59:09.695Z,99557.75
2023-04-27T18:01:36.526Z,99559.92
2023-04-27T18:04:05.944Z,99559.36
2023-04-27T18:06:33.568Z,99559.37
2023-04-27T18:09:00.842Z,99565.84
2023-04-27T18:11:28.263Z,99564.23
2023-04-27T18:13:59.406Z,99569.15
2023-04-27T18:16:26.476Z,99566.05
2023-04-27T18:18:53.327Z,99568.66
2023-04-27T18:21:20.188Z,99568.95
2023-04-27T18:23:47.158Z,99569.00
2023-04-27T18:26:13.920Z,99569.82
2023-04-27T18:28:41.130Z,99573.58
2023-04-27T18:31:17.224Z,99576.30
2023-04-27T18:33:44.454Z,99584.99
2023-04-27T18:36:11.118Z,99585.38
2023-04-27T18:38:37.822Z,99584.04
2023-04-27T18:41:04.543Z,99583.27
2023-04-27T18:43:33.783Z,99583.11
2023-04-27T18:46:02.621Z,99581.51
2023-04-27T18:48:29.634Z,99580.83
2023-04-27T18:50:56.932Z,99584.13
2023-04-27T18:53:23.734Z,99582.85
2023-04-27T18:55:50.507Z,99585.80
2023-04-27T18:58:17.286Z,99580.06
2023-04-27T19:00:43.998Z,99586.00
2023-04-27T19:03:10.902Z,99587.23
2023-04-27T19:05:42.333Z,99588.92
2023-04-27T19:08:10.620Z,99587.31
2023-04-27T19:10:40.858Z,99588.27
2023-04-27T19:13:08.035Z,99590.64
2023-04-27T19:15:34.788Z,99597.36
2023-04-27T19:18:07.191Z,99594.48
2023-04-27T19:20:38.335Z,99595.96
2023-04-27T19:23:05.343Z,99599.52
2023-04-27T19:25:32.291Z,99601.92
2023-04-27T19:27:59.131Z,99603.71
2023-04-27T19:30:25.917Z,99603.73
2023-04-27T19:32:53.186Z,99607.54
2023-04-27T19:35:23.466Z,99609.80
2023-04-27T19:37:50.859Z,99608.73
2023-04-27T19:40:17.671Z,99612.17
2023-04-27T19:42:45.024Z,99610.42
2023-04-27T19:45:11.990Z,99611.27
2023-04-27T19:47:39.227Z,99610.56
2023-04-27T19:50:06.728Z,99611.64
2023-04-27T19:52:34.249Z,99616.44
2023-04-27T19:55:01.367Z,99622.16
2023-04-27T19:57:28.795Z,99624.90
2023-04-27T19:59:56.369Z,99625.98
2023-04-27T20:02:23.198Z,99625.59
2023-04-27T20:04:50.422Z,99630.40
2023-04-27T20:07:17.352Z,99633.93
2023-04-27T20:09:44.111Z,99636.84
2023-04-27T20:12:28.870Z,99638.81
2023-04-27T20:14:59.657Z,99635.17
2023-04-27T20:17:26.774Z,99635.70
2023-04-27T20:19:55.563Z,99632.46
2023-04-27T20:22:22.663Z,99632.00
2023-04-27T20:24:49.322Z,99637.14
2023-04-27T20:27:16.124Z,99635.26
2023-04-27T20:29:44.491Z,99637.52
2023-04-27T20:32:11.819Z,99638.38
2023-04-27T20:34:39.055Z,99638.83
2023-04-27T20:37:05.656Z,99638.36
2023-04-27T20:39:34.327Z,99638.27
2023-04-27T20:42:00.969Z,99641.52
2023-04-27T20:44:27.788Z,99639.02
2023-04-27T20:46:54.635Z,99640.07
2023-04-27T20:49:32.048Z,99638.84
2023-04-27T20:52:01.899Z,99646.59
2023-04-27T20:54:32.225Z,99647.10
2023-04-27T20:57:03.184Z,99651.30
2023-04-27T20:59:30.354Z,99647.33
2023-04-27T21:01:57.086Z,99650.26
2023-04-27T21:04:23.848Z,99648.27
2023-04-27T21:06:50.623Z,99650.95
2023-04-27T21:09:17.367Z,99652.02
2023-04-27T21:11:44.032Z,99650.52
2023-04-27T21:14:10.823Z,99653.30
2023-04-27T21:16:37.890Z,99651.61
2023-04-27T21:19:04.702Z,99652.31
2023-04-27T21:21:31.781Z,99650.52
2023-04-27T21:24:07.305Z,99650.54
2023-04-27T21:26:35.203Z,99647.04
2023-04-27T21:29:04.698Z,99645.13
2023-04-27T21:31:32.300Z,99646.85
2023-04-27T21:33:59.195Z,99640.80
2023-04-27T21:36:26.009Z,99640.67
2023-04-27T21:38:53.289Z,99636.02
2023-04-27T21:41:20.066Z,99640.22
2023-04-27T21:43:46.776Z,99643.39
2023-04-27T21:46:13.635Z,99649.04
2023-04-27T21:48:40.639Z,99649.66
2023-04-27T21:51:07.283Z,99652.48
2023-04-27T21:53:34.109Z,99648.89
2023-04-27T21:56:00.840Z,99652.98
2023-04-27T21:58:27.942Z,99650.08
2023-04-27T22:00:54.612Z,99645.83
2023-04-27T22:03:22.260Z,99642.17
2023-04-27T22:05:49.683Z,99633.52
2023-04-27T22:08:16.614Z,99633.67
2023-04-27T22:10:43.992Z,99632.55
2023-04-27T22:13:18.738Z,99633.55
2023-04-27T22:15:46.503Z,99633.09
2023-04-27T22:18:14.543Z,99627.35
2023-04-27T22:20:41.757Z,99630.73
2023-04-27T22:23:08.844Z,99628.55
2023-04-27T22:25:35.913Z,99629.10
2023-04-27T22:28:02.733Z,99629.11
2023-04-27T22:30:29.764Z,99630.14
2023-04-27T22:32:56.857Z,99629.79
2023-04-27T22:35:27.283Z,99631.48
2023-04-27T22:37:55.158Z,99629.35
2023-04-27T22:40:21.922Z,99630.00
2023-04-27T22:42:48.694Z,99631.11
2023-04-27T22:45:15.796Z,99627.59
2023-04-27T22:47:44.055Z,99628.58
2023-04-27T22:50:11.302Z,99630.27
2023-04-27T22:52:41.362Z,99634.02
2023-04-27T22:55:08.604Z,99636.33
2023-04-27T22:57:35.498Z,99637.25
2023-04-27T23:00:04.635Z,99637.33
2023-04-27T23:02:32.075Z,99642.27
2023-04-27T23:04:58.876Z,99636.95
2023-04-27T23:07:25.636Z,99638.02
2023-04-27T23:09:54.165Z,99636.41
2023-04-27T23:12:21.433Z,99628.73
2023-04-27T23:14:48.235Z,99630.24
2023-04-27T23:17:14.821Z,99628.77
2023-04-27T23:19:41.505Z,99629.05
2023-04-27T23:22:08.133Z,99625.61
2023-04-27T23:24:35.200Z,99629.50
2023-04-27T23:27:01.790Z,99631.91
2023-04-27T23:29:30.024Z,99627.98
2023-04-27T23:32:03.927Z,99627.08
2023-04-27T23:34:32.250Z,99626.83
2023-04-27T23:36:58.981Z,99622.52
2023-04-27T23:39:27.356Z,99622.38
2023-04-27T23:41:54.158Z,99624.28
2023-04-27T23:44:21.569Z,99628.95
2023-04-27T23:46:48.156Z,99631.36
2023-04-27T23:49:15.040Z,99628.48
2023-04-27T23:51:41.713Z,99632.94
2023-04-27T23:54:08.394Z,99635.06
2023-04-27T23:56:36.015Z,99637.66
2023-04-27T23:59:02.906Z,99639.71
